Time;durP1;ratioP1;P1;durP2;ratioP2;P2;SDS_P1;SDS_P2;PMS_P1;PMS_P2;Temp;Humidity;BMP_temperature;BMP_pressure;BME280_temperature;BME280_humidity;BME280_pressure;Samples;Min_cycle;Max_cycle;Signal;HPM_P1;HPM_P2
2023/07/20 00:00:53;;;;;;;6.35;2.38;;;15.80;99.90;;;;;;5026937;28;20760;-66
2023/07/20 00:03:22;;;;;;;5.07;2.05;;;15.70;99.90;;;;;;5026319;28;20509;-67
2023/07/20 00:05:48;;;;;;;4.57;2.17;;;15.70;99.90;;;;;;5022242;28;20025;-66
2023/07/20 00:08:14;;;;;;;4.10;2.53;;;15.70;99.90;;;;;;5029036;28;20395;-66
2023/07/20 00:10:41;;;;;;;5.00;2.60;;;15.70;99.90;;;;;;5026546;28;20053;-66
2023/07/20 00:13:06;;;;;;;8.05;2.60;;;15.70;99.90;;;;;;5032936;28;20036;-66
2023/07/20 00:15:32;;;;;;;6.20;1.90;;;15.70;99.90;;;;;;5030794;28;20026;-66
2023/07/20 00:17:58;;;;;;;10.27;2.08;;;15.60;99.90;;;;;;5020980;28;20025;-66
2023/07/20 00:20:25;;;;;;;5.55;3.13;;;15.60;99.90;;;;;;5026029;28;20095;-66
2023/07/20 00:22:51;;;;;;;5.53;2.15;;;15.70;99.90;;;;;;5020695;28;20029;-66
2023/07/20 00:25:17;;;;;;;5.63;2.08;;;15.70;99.90;;;;;;5025269;28;20025;-67
2023/07/20 00:27:43;;;;;;;4.50;2.08;;;15.80;99.90;;;;;;5021513;28;20014;-66
2023/07/20 00:30:09;;;;;;;8.13;2.58;;;15.90;99.90;;;;;;5027300;28;20741;-66
2023/07/20 00:32:34;;;;;;;5.65;2.33;;;16.00;99.90;;;;;;5023833;28;20032;-66
2023/07/20 00:35:00;;;;;;;3.75;2.53;;;16.00;99.90;;;;;;5021678;28;20034;-64
2023/07/20 00:37:25;;;;;;;4.93;2.50;;;16.10;99.90;;;;;;5021129;28;20033;-65
2023/07/20 00:39:53;;;;;;;5.90;2.35;;;16.20;99.90;;;;;;5021677;28;20075;-65
2023/07/20 00:42:18;;;;;;;6.75;2.70;;;16.20;99.90;;;;;;5021064;28;20163;-64
2023/07/20 00:44:44;;;;;;;10.85;2.60;;;16.30;99.90;;;;;;5014754;28;20030;-65
2023/07/20 00:47:10;;;;;;;5.35;1.92;;;16.40;99.90;;;;;;5015938;28;20017;-63
2023/07/20 00:49:35;;;;;;;9.77;2.30;;;16.40;99.90;;;;;;5026964;28;20372;-65
2023/07/20 00:52:03;;;;;;;7.38;2.28;;;16.50;99.90;;;;;;5023826;28;20116;-65
2023/07/20 00:54:29;;;;;;;4.60;2.50;;;16.50;99.90;;;;;;5024702;28;20033;-65
2023/07/20 00:56:55;;;;;;;7.05;2.63;;;16.50;99.90;;;;;;5022206;28;20079;-65
2023/07/20 00:59:21;;;;;;;6.45;2.13;;;16.60;99.90;;;;;;5007710;28;20037;-64
2023/07/20 01:01:47;;;;;;;7.80;2.65;;;16.60;99.90;;;;;;5027137;28;20033;-65
2023/07/20 01:04:13;;;;;;;4.25;2.70;;;16.60;99.90;;;;;;5026516;28;20037;-64
2023/07/20 01:06:39;;;;;;;5.95;2.70;;;16.60;99.90;;;;;;5026363;28;20034;-65
2023/07/20 01:09:16;;;;;;;9.45;2.22;;;16.60;99.90;;;;;;5026472;28;20022;-65
2023/07/20 01:12:03;;;;;;;7.20;2.30;;;16.60;99.90;;;;;;5024633;28;20043;-64
2023/07/20 01:14:29;;;;;;;6.65;2.55;;;16.60;99.90;;;;;;5024124;28;20123;-65
2023/07/20 01:16:55;;;;;;;6.90;2.80;;;16.70;99.90;;;;;;5012160;28;20037;-65
2023/07/20 01:19:20;;;;;;;8.02;2.80;;;16.70;99.90;;;;;;5035124;28;20033;-64
2023/07/20 01:22:03;;;;;;;10.88;2.95;;;16.70;99.90;;;;;;5025841;28;20025;-65
2023/07/20 01:24:50;;;;;;;4.55;2.47;;;16.60;99.90;;;;;;5019617;28;20033;-65
2023/07/20 01:27:43;;;;;;;4.50;2.75;;;16.50;99.90;;;;;;5021506;28;20064;-65
2023/07/20 01:30:35;;;;;;;5.72;2.60;;;16.50;99.90;;;;;;5022918;28;20094;-64
2023/07/20 01:33:01;;;;;;;4.57;2.72;;;16.40;99.90;;;;;;5025682;28;20032;-64
2023/07/20 01:35:30;;;;;;;5.22;2.92;;;16.40;99.90;;;;;;5023910;28;20029;-65
2023/07/20 01:37:57;;;;;;;7.55;3.30;;;16.30;99.90;;;;;;5023479;28;20025;-64
2023/07/20 01:40:25;;;;;;;4.57;2.75;;;16.20;99.90;;;;;;5029963;28;20502;-66
2023/07/20 01:42:52;;;;;;;9.32;2.85;;;16.20;99.90;;;;;;5010176;28;20030;-66
2023/07/20 01:45:17;;;;;;;6.45;3.05;;;16.20;99.90;;;;;;5023269;28;20167;-65
2023/07/20 01:47:43;;;;;;;6.93;2.80;;;16.20;99.90;;;;;;5023646;28;20112;-66
2023/07/20 01:50:09;;;;;;;11.10;2.90;;;16.20;99.90;;;;;;5024297;28;20040;-66
2023/07/20 01:52:35;;;;;;;8.43;3.13;;;16.20;99.90;;;;;;5018120;28;20030;-65
2023/07/20 01:55:00;;;;;;;5.32;2.88;;;16.20;99.90;;;;;;5022380;28;20033;-65
2023/07/20 01:57:26;;;;;;;5.03;2.38;;;16.20;99.90;;;;;;5025664;28;20029;-65
2023/07/20 01:59:51;;;;;;;4.80;2.67;;;16.30;99.90;;;;;;5026532;28;20025;-66
2023/07/20 02:02:18;;;;;;;10.90;3.45;;;16.30;99.90;;;;;;5027321;28;20418;-65
2023/07/20 02:04:43;;;;;;;8.40;2.63;;;16.30;99.90;;;;;;5022351;28;20034;-65
2023/07/20 02:07:09;;;;;;;7.45;3.28;;;16.30;99.90;;;;;;5023969;28;20029;-65
2023/07/20 02:09:34;;;;;;;6.07;2.55;;;16.30;99.90;;;;;;5012371;28;20029;-66
2023/07/20 02:12:00;;;;;;;6.25;3.30;;;16.30;99.90;;;;;;5027725;28;20501;-64
2023/07/20 02:14:26;;;;;;;5.00;3.00;;;16.30;99.90;;;;;;5026134;28;20029;-65
2023/07/20 02:16:52;;;;;;;8.80;2.75;;;16.30;99.90;;;;;;5025563;28;20030;-65
2023/07/20 02:19:18;;;;;;;7.68;2.92;;;16.30;99.90;;;;;;5017269;28;20030;-66
2023/07/20 02:21:44;;;;;;;11.38;2.63;;;16.30;99.90;;;;;;5023252;28;20033;-64
2023/07/20 02:24:09;;;;;;;6.63;2.65;;;16.20;99.90;;;;;;5015429;28;20506;-65
2023/07/20 02:26:35;;;;;;;6.25;2.63;;;16.20;99.90;;;;;;5026268;28;20406;-66
2023/07/20 02:29:00;;;;;;;8.63;2.65;;;16.20;99.90;;;;;;5006892;28;20390;-65
2023/07/20 02:31:26;;;;;;;6.60;2.85;;;16.20;99.90;;;;;;5022841;28;20168;-65
2023/07/20 02:33:51;;;;;;;6.22;2.78;;;16.20;99.90;;;;;;5016975;28;20367;-67
2023/07/20 02:36:17;;;;;;;5.75;2.70;;;16.10;99.90;;;;;;5023091;28;20017;-65
2023/07/20 02:38:43;;;;;;;5.63;2.42;;;16.10;99.90;;;;;;5022039;28;20108;-66
2023/07/20 02:41:08;;;;;;;8.13;3.13;;;16.10;99.90;;;;;;5021784;28;20582;-66
2023/07/20 02:43:34;;;;;;;7.60;3.30;;;16.10;99.90;;;;;;5024760;28;20497;-66
2023/07/20 02:45:59;;;;;;;3.72;2.78;;;16.10;99.90;;;;;;5027913;28;20032;-66
2023/07/20 02:48:25;;;;;;;8.80;3.55;;;16.10;99.90;;;;;;5019273;28;20072;-66
2023/07/20 02:50:50;;;;;;;8.10;3.10;;;16.10;99.90;;;;;;5021861;28;20036;-65
2023/07/20 02:53:16;;;;;;;7.25;3.08;;;16.10;99.90;;;;;;5021118;28;20025;-65
2023/07/20 02:55:41;;;;;;;6.78;3.45;;;16.00;99.90;;;;;;5022296;28;20481;-65
2023/07/20 02:58:07;;;;;;;6.03;3.50;;;15.90;99.90;;;;;;5020987;28;20830;-65
2023/07/20 03:00:33;;;;;;;6.95;3.35;;;15.80;99.90;;;;;;5021022;28;20034;-65
2023/07/20 03:02:58;;;;;;;7.45;3.13;;;15.60;99.90;;;;;;5019142;28;20048;-66
2023/07/20 03:05:27;;;;;;;7.25;3.70;;;15.50;99.90;;;;;;5021889;28;20079;-66
2023/07/20 03:07:53;;;;;;;6.05;3.22;;;15.40;99.90;;;;;;5021761;28;20013;-65
2023/07/20 03:10:19;;;;;;;11.82;4.75;;;15.40;99.90;;;;;;5003713;28;20390;-66
2023/07/20 03:12:44;;;;;;;8.52;3.83;;;15.30;99.90;;;;;;5020847;28;20036;-65
2023/07/20 03:15:11;;;;;;;8.80;3.88;;;15.20;99.90;;;;;;5021660;28;20870;-65
2023/07/20 03:17:36;;;;;;;9.70;4.15;;;15.20;99.90;;;;;;5021135;28;20036;-65
2023/07/20 03:20:02;;;;;;;8.13;3.35;;;15.20;99.90;;;;;;5022189;28;20719;-65
2023/07/20 03:22:28;;;;;;;12.18;3.85;;;15.20;99.90;;;;;;5020524;28;20117;-65
2023/07/20 03:24:54;;;;;;;7.07;4.30;;;15.30;99.90;;;;;;5022916;28;20104;-65
2023/07/20 03:27:19;;;;;;;8.82;4.07;;;15.30;99.90;;;;;;5024848;28;20022;-66
2023/07/20 03:29:45;;;;;;;8.75;3.95;;;15.40;99.90;;;;;;5006285;28;20026;-65
2023/07/20 03:32:10;;;;;;;8.60;3.72;;;15.40;99.90;;;;;;5022149;28;20021;-65
2023/07/20 03:34:36;;;;;;;6.30;3.65;;;15.40;99.90;;;;;;5026712;28;21122;-66
2023/07/20 03:37:04;;;;;;;11.27;3.92;;;15.40;99.90;;;;;;5023543;28;20408;-66
2023/07/20 03:39:30;;;;;;;10.38;3.88;;;15.40;99.90;;;;;;5022600;28;20036;-66
2023/07/20 03:41:57;;;;;;;8.60;3.60;;;15.40;99.90;;;;;;5017437;28;20022;-66
2023/07/20 03:44:22;;;;;;;7.82;4.32;;;15.50;99.90;;;;;;5015266;28;20091;-66
2023/07/20 03:46:48;;;;;;;7.53;3.72;;;15.50;99.90;;;;;;5022525;28;20025;-66
2023/07/20 03:49:13;;;;;;;13.20;4.10;;;15.50;99.90;;;;;;5023087;28;20041;-64
2023/07/20 03:51:39;;;;;;;8.57;4.28;;;15.60;99.90;;;;;;5018900;28;20017;-66
2023/07/20 03:54:05;;;;;;;10.68;3.70;;;15.60;99.90;;;;;;5006924;28;20053;-66
2023/07/20 03:56:34;;;;;;;8.02;3.65;;;15.60;99.90;;;;;;5019572;28;20030;-66
2023/07/20 03:58:59;;;;;;;7.20;3.38;;;15.60;99.90;;;;;;5018810;28;20026;-65
2023/07/20 04:01:25;;;;;;;7.75;3.40;;;15.60;99.90;;;;;;5019401;28;20030;-64
2023/07/20 04:03:50;;;;;;;7.97;3.40;;;15.60;99.90;;;;;;5001597;28;20427;-65
2023/07/20 04:06:17;;;;;;;7.57;3.90;;;15.60;99.90;;;;;;5018903;28;20032;-64
2023/07/20 04:08:43;;;;;;;8.60;3.72;;;15.70;99.90;;;;;;5018756;28;20485;-65
2023/07/20 04:11:08;;;;;;;9.60;2.88;;;15.80;99.90;;;;;;5000403;28;20053;-66
2023/07/20 04:13:34;;;;;;;6.18;3.10;;;15.80;99.90;;;;;;5018586;28;20045;-65
2023/07/20 04:16:00;;;;;;;5.78;3.45;;;15.90;99.90;;;;;;5017856;28;20037;-66
2023/07/20 04:18:25;;;;;;;6.88;2.80;;;16.00;99.90;;;;;;5019133;28;20065;-65
2023/07/20 04:20:51;;;;;;;6.45;2.90;;;16.10;99.90;;;;;;5018887;28;20049;-65
2023/07/20 04:23:17;;;;;;;8.70;3.05;;;16.10;99.90;;;;;;5002195;28;20029;-61
2023/07/20 04:25:42;;;;;;;8.00;3.53;;;16.20;99.90;;;;;;5017223;28;20029;-66
2023/07/20 04:28:11;;;;;;;14.18;2.85;;;16.30;99.90;;;;;;4997519;28;20171;-66
2023/07/20 04:30:37;;;;;;;4.57;3.00;;;16.40;99.90;;;;;;5017450;28;20490;-65
2023/07/20 04:33:06;;;;;;;6.60;3.00;;;16.50;99.90;;;;;;5023632;28;20021;-65
2023/07/20 04:35:51;;;;;;;6.40;2.58;;;16.50;99.90;;;;;;5032988;23;20065;-63
2023/07/20 04:38:18;;;;;;;16.92;3.38;;;16.50;99.90;;;;;;5002225;28;20117;-65
2023/07/20 04:40:48;;;;;;;7.40;3.00;;;16.50;99.90;;;;;;5007882;28;20022;-64
2023/07/20 04:43:14;;;;;;;8.95;2.88;;;16.50;99.90;;;;;;5006283;28;20034;-62
2023/07/20 04:45:40;;;;;;;7.72;2.45;;;16.60;99.90;;;;;;5001631;28;20113;-65
2023/07/20 04:48:11;;;;;;;5.60;2.72;;;16.60;99.90;;;;;;5001165;28;20114;-65
2023/07/20 04:50:37;;;;;;;4.30;2.20;;;16.60;99.90;;;;;;5000082;28;20041;-66
2023/07/20 04:53:03;;;;;;;8.70;3.38;;;16.60;99.90;;;;;;5005633;28;20487;-64
2023/07/20 04:55:29;;;;;;;5.35;2.22;;;16.70;99.90;;;;;;5005175;28;20041;-63
2023/07/20 04:57:54;;;;;;;5.25;2.90;;;16.80;99.90;;;;;;5010969;28;20144;-65
2023/07/20 05:00:21;;;;;;;4.97;2.63;;;16.90;99.90;;;;;;4988434;28;20108;-65
2023/07/20 05:02:48;;;;;;;6.03;2.95;;;17.10;99.90;;;;;;4990856;28;20384;-62
2023/07/20 05:05:15;;;;;;;6.20;3.00;;;17.30;99.90;;;;;;5006698;28;20084;-62
2023/07/20 05:07:40;;;;;;;5.28;3.28;;;17.50;99.90;;;;;;5011528;28;20033;-64
2023/07/20 05:10:07;;;;;;;8.98;2.83;;;18.00;99.90;;;;;;5005707;28;20030;-66
2023/07/20 05:12:32;;;;;;;5.10;2.50;;;19.00;99.90;;;;;;5003776;28;20098;-64
2023/07/20 05:14:58;;;;;;;9.80;2.20;;;20.20;99.90;;;;;;5005390;28;20108;-64
2023/07/20 05:17:24;;;;;;;5.65;2.50;;;20.90;99.90;;;;;;5007991;28;20088;-62
2023/07/20 05:19:50;;;;;;;11.18;2.13;;;21.80;99.90;;;;;;5002546;28;20128;-62
2023/07/20 05:22:16;;;;;;;4.25;2.17;;;22.20;99.90;;;;;;5005587;28;20663;-63
2023/07/20 05:24:41;;;;;;;7.47;2.30;;;22.60;99.60;;;;;;5003978;28;20026;-63
2023/07/20 05:27:07;;;;;;;9.15;2.25;;;22.70;99.00;;;;;;5010438;28;20104;-63
2023/07/20 05:29:33;;;;;;;6.75;2.78;;;22.80;99.40;;;;;;5007546;28;20042;-63
2023/07/20 05:31:58;;;;;;;7.38;2.83;;;22.70;98.60;;;;;;5001538;28;20534;-63
2023/07/20 05:34:24;;;;;;;5.57;2.58;;;21.80;99.30;;;;;;5000241;28;20096;-63
2023/07/20 05:36:49;;;;;;;7.28;2.75;;;21.40;99.90;;;;;;5011644;28;20044;-63
2023/07/20 05:39:17;;;;;;;4.78;3.00;;;20.80;99.90;;;;;;4984307;28;20125;-59
2023/07/20 05:41:42;;;;;;;8.93;2.70;;;20.30;99.90;;;;;;4999685;28;20622;-63
2023/07/20 05:44:08;;;;;;;11.43;3.00;;;20.00;99.90;;;;;;5003377;28;20057;-63
2023/07/20 05:46:34;;;;;;;8.15;3.20;;;19.90;99.90;;;;;;5002503;28;20489;-63
2023/07/20 05:49:00;;;;;;;9.40;3.15;;;19.70;99.90;;;;;;5007766;28;20037;-63
2023/07/20 05:51:25;;;;;;;11.93;3.63;;;19.70;99.90;;;;;;5007877;28;20110;-64
2023/07/20 05:53:51;;;;;;;8.68;3.22;;;19.90;99.90;;;;;;5005521;28;20309;-62
2023/07/20 05:56:16;;;;;;;6.53;2.88;;;20.10;99.90;;;;;;5003847;28;20026;-64
2023/07/20 05:58:42;;;;;;;10.15;3.25;;;21.00;99.90;;;;;;5001665;28;20543;-62
2023/07/20 06:01:08;;;;;;;6.25;2.45;;;21.60;99.90;;;;;;5001142;28;20080;-64
2023/07/20 06:03:34;;;;;;;8.52;2.72;;;21.90;99.90;;;;;;5007454;28;20026;-63
2023/07/20 06:06:04;;;;;;;9.20;2.97;;;21.90;99.90;;;;;;5008806;28;20049;-63
2023/07/20 06:08:30;;;;;;;7.10;2.70;;;21.70;99.90;;;;;;5008346;28;20105;-63
2023/07/20 06:10:56;;;;;;;6.18;2.83;;;21.40;99.90;;;;;;5005906;28;20030;-64
2023/07/20 06:13:21;;;;;;;9.32;3.28;;;21.10;99.90;;;;;;5009942;28;20088;-59
2023/07/20 06:15:47;;;;;;;11.05;3.63;;;20.70;99.90;;;;;;5003218;28;20028;-62
2023/07/20 06:18:13;;;;;;;6.75;3.78;;;20.50;99.90;;;;;;5011301;28;20026;-65
2023/07/20 06:20:39;;;;;;;7.57;3.22;;;20.00;99.90;;;;;;5002637;28;20032;-64
2023/07/20 06:23:05;;;;;;;10.85;3.67;;;20.50;99.90;;;;;;5004469;28;20030;-62
2023/07/20 06:25:30;;;;;;;7.03;3.00;;;21.40;99.90;;;;;;5007074;28;20505;-62
2023/07/20 06:27:56;;;;;;;8.52;3.00;;;21.60;99.90;;;;;;5003058;28;20022;-63
2023/07/20 06:30:22;;;;;;;7.03;3.20;;;21.60;99.90;;;;;;5005276;28;20080;-64
2023/07/20 06:32:48;;;;;;;6.68;3.03;;;21.30;99.90;;;;;;5010091;28;20036;-63
2023/07/20 06:35:15;;;;;;;6.03;2.70;;;21.20;99.90;;;;;;5006935;28;20524;-63
2023/07/20 06:37:40;;;;;;;8.57;3.38;;;21.20;99.90;;;;;;4995750;28;20510;-64
2023/07/20 06:40:08;;;;;;;5.53;3.30;;;21.00;99.90;;;;;;5000472;28;20034;-64
2023/07/20 06:42:34;;;;;;;7.60;3.30;;;20.80;99.90;;;;;;5005045;28;20045;-63
2023/07/20 06:45:01;;;;;;;9.75;3.05;;;20.90;99.90;;;;;;4987723;28;20025;-63
2023/07/20 06:47:27;;;;;;;11.45;3.72;;;20.70;99.90;;;;;;4993556;28;20480;-63
2023/07/20 06:49:52;;;;;;;5.72;3.17;;;20.30;99.90;;;;;;5007639;28;20029;-62
2023/07/20 06:52:18;;;;;;;6.28;3.83;;;20.30;99.90;;;;;;5008984;28;20947;-63
2023/07/20 06:54:43;;;;;;;9.55;4.10;;;20.20;99.90;;;;;;5003824;28;20040;-61
2023/07/20 06:57:09;;;;;;;8.93;3.33;;;20.50;99.90;;;;;;5010709;28;20029;-63
2023/07/20 06:59:34;;;;;;;6.22;3.50;;;21.70;99.90;;;;;;5007641;28;20034;-63
2023/07/20 07:02:00;;;;;;;12.88;4.28;;;23.20;99.70;;;;;;4986033;28;20050;-62
2023/07/20 07:04:26;;;;;;;7.35;3.42;;;24.70;96.40;;;;;;5007889;28;20068;-64
2023/07/20 07:06:51;;;;;;;6.80;3.15;;;25.20;93.90;;;;;;5005697;28;20026;-63
2023/07/20 07:09:18;;;;;;;8.10;3.92;;;24.90;92.90;;;;;;5004607;28;20037;-59
2023/07/20 07:11:44;;;;;;;7.97;3.60;;;24.00;93.50;;;;;;5007067;28;20123;-63
2023/07/20 07:14:12;;;;;;;10.85;4.07;;;23.20;94.80;;;;;;5006155;28;20574;-63
2023/07/20 07:16:38;;;;;;;12.27;4.22;;;22.50;96.30;;;;;;5008329;28;20100;-63
2023/07/20 07:19:05;;;;;;;7.93;4.00;;;22.10;97.00;;;;;;4992864;28;20105;-63
2023/07/20 07:21:31;;;;;;;8.20;3.70;;;22.10;98.90;;;;;;5008367;28;20022;-62
2023/07/20 07:23:57;;;;;;;5.20;3.10;;;23.10;97.80;;;;;;5007077;28;20509;-63
2023/07/20 07:26:23;;;;;;;7.28;3.80;;;24.00;95.10;;;;;;5008337;28;20403;-62
2023/07/20 07:28:49;;;;;;;5.70;2.95;;;24.10;93.90;;;;;;5004601;28;20015;-63
2023/07/20 07:31:15;;;;;;;5.53;2.95;;;25.30;94.00;;;;;;5004399;28;20394;-62
2023/07/20 07:33:41;;;;;;;6.35;3.22;;;25.90;90.30;;;;;;5007667;28;20026;-63
2023/07/20 07:36:06;;;;;;;6.97;3.42;;;25.00;91.20;;;;;;5006832;28;20407;-61
2023/07/20 07:38:32;;;;;;;5.13;2.97;;;24.70;91.80;;;;;;5002920;28;20038;-62
2023/07/20 07:40:59;;;;;;;5.88;2.95;;;25.50;92.90;;;;;;5007773;28;20475;-63
2023/07/20 07:43:24;;;;;;;7.10;2.33;;;26.40;91.00;;;;;;5009099;28;20052;-65
2023/07/20 07:45:50;;;;;;;5.28;2.67;;;26.30;89.70;;;;;;5004011;28;20021;-64
2023/07/20 07:48:15;;;;;;;8.52;3.15;;;26.30;90.00;;;;;;5006788;28;20088;-64
2023/07/20 07:50:41;;;;;;;6.60;3.20;;;25.80;90.40;;;;;;5006782;28;20049;-64
2023/07/20 07:53:08;;;;;;;7.80;3.25;;;26.50;90.00;;;;;;4995741;28;20029;-64
2023/07/20 07:55:34;;;;;;;5.13;2.90;;;26.20;88.40;;;;;;5006915;28;20036;-64
2023/07/20 07:58:00;;;;;;;6.25;3.17;;;26.30;89.50;;;;;;5005827;28;20034;-63
2023/07/20 08:00:26;;;;;;;8.18;3.55;;;26.20;88.30;;;;;;5004190;28;20030;-64
2023/07/20 08:02:52;;;;;;;4.10;2.80;;;26.80;85.90;;;;;;4985273;28;20072;-63
2023/07/20 08:05:17;;;;;;;8.88;2.88;;;26.40;87.50;;;;;;4999046;28;20026;-62
2023/07/20 08:07:43;;;;;;;8.00;2.33;;;26.90;86.40;;;;;;4999869;28;20101;-63
2023/07/20 08:10:09;;;;;;;5.20;2.50;;;27.40;84.10;;;;;;4998587;28;20394;-62
2023/07/20 08:12:35;;;;;;;5.45;2.60;;;28.00;83.50;;;;;;4997068;28;20029;-63
2023/07/20 08:15:00;;;;;;;4.22;2.00;;;29.10;81.30;;;;;;4999804;28;20041;-63
2023/07/20 08:17:26;;;;;;;5.70;2.33;;;29.60;77.40;;;;;;5000565;28;20443;-66
2023/07/20 08:19:52;;;;;;;5.25;2.20;;;28.80;77.70;;;;;;4999485;28;20034;-63
2023/07/20 08:22:17;;;;;;;7.07;2.22;;;29.00;78.80;;;;;;4981769;28;20044;-62
2023/07/20 08:24:43;;;;;;;3.80;2.15;;;29.20;77.80;;;;;;4999719;28;20125;-64
2023/07/20 08:27:10;;;;;;;6.78;2.20;;;28.00;77.50;;;;;;5004131;28;20148;-64
2023/07/20 08:29:36;;;;;;;4.50;2.42;;;26.90;81.20;;;;;;4997862;28;20105;-63
2023/07/20 08:32:03;;;;;;;4.90;1.83;;;26.30;81.40;;;;;;5008600;28;20030;-63
2023/07/20 08:34:30;;;;;;;4.22;1.80;;;26.80;82.10;;;;;;5013381;28;20418;-64
2023/07/20 08:36:57;;;;;;;4.32;1.70;;;27.40;79.70;;;;;;5006814;28;20038;-61
2023/07/20 08:39:23;;;;;;;2.47;1.50;;;26.80;78.60;;;;;;5004004;28;20037;-63
2023/07/20 08:41:49;;;;;;;5.93;2.08;;;25.80;80.20;;;;;;5002941;28;20105;-64
2023/07/20 08:44:15;;;;;;;2.05;1.63;;;25.20;83.20;;;;;;5001768;28;20372;-61
2023/07/20 08:46:42;;;;;;;4.18;2.05;;;24.80;84.60;;;;;;5008233;28;20033;-64
2023/07/20 08:49:08;;;;;;;5.68;1.63;;;24.20;86.10;;;;;;5007933;28;20030;-63
2023/07/20 08:51:35;;;;;;;4.40;2.00;;;24.00;86.90;;;;;;5006677;28;20029;-63
2023/07/20 08:54:02;;;;;;;2.10;1.75;;;24.10;88.60;;;;;;5000596;28;20095;-65
2023/07/20 08:56:30;;;;;;;4.97;1.80;;;25.20;87.20;;;;;;5007363;28;20506;-65
2023/07/20 08:58:58;;;;;;;3.20;1.90;;;26.40;84.90;;;;;;5003643;28;20088;-63
2023/07/20 09:01:24;;;;;;;6.57;1.95;;;27.60;81.80;;;;;;4991820;28;20111;-63
2023/07/20 09:03:50;;;;;;;3.42;2.00;;;29.00;78.20;;;;;;4999247;28;20036;-64
2023/07/20 09:06:16;;;;;;;1.73;1.40;;;28.90;76.10;;;;;;5002177;28;20030;-65
2023/07/20 09:08:42;;;;;;;3.63;1.80;;;29.70;73.80;;;;;;5009833;28;20053;-64
2023/07/20 09:11:13;;;;;;;6.47;1.80;;;30.50;73.40;;;;;;5011585;28;20483;-64
2023/07/20 09:13:39;;;;;;;4.20;1.88;;;30.40;71.70;;;;;;4991136;28;20101;-62
2023/07/20 09:16:04;;;;;;;3.92;1.38;;;31.00;69.80;;;;;;4988572;28;20577;-62
2023/07/20 09:18:31;;;;;;;2.25;1.40;;;30.80;70.70;;;;;;4992106;28;20048;-63
2023/07/20 09:21:05;;;;;;;3.45;1.60;;;30.30;70.00;;;;;;4993830;28;20406;-64
2023/07/20 09:23:41;;;;;;;3.45;1.70;;;30.60;71.60;;;;;;5009217;28;20022;-65
2023/07/20 09:26:15;;;;;;;4.18;1.67;;;30.30;70.00;;;;;;4992455;28;20507;-64
2023/07/20 09:28:51;;;;;;;8.65;1.50;;;30.20;70.20;;;;;;5006216;28;20030;-65
2023/07/20 09:31:19;;;;;;;1.95;1.50;;;30.40;69.10;;;;;;5005110;28;20419;-60
2023/07/20 09:33:45;;;;;;;3.05;1.60;;;30.40;68.50;;;;;;4992442;28;20032;-63
2023/07/20 09:36:13;;;;;;;2.40;1.60;;;30.20;69.30;;;;;;5011231;28;20524;-64
2023/07/20 09:38:45;;;;;;;1.98;1.20;;;29.80;69.80;;;;;;5000862;28;20046;-63
2023/07/20 09:41:15;;;;;;;3.85;1.40;;;28.90;72.00;;;;;;5009918;28;20057;-63
2023/07/20 09:43:41;;;;;;;2.38;1.20;;;28.10;71.60;;;;;;5004932;28;20503;-61
2023/07/20 09:46:07;;;;;;;1.50;1.02;;;28.40;68.90;;;;;;5005467;28;20545;-60
2023/07/20 09:48:32;;;;;;;2.72;1.00;;;28.30;68.40;;;;;;5003582;28;20053;-64
2023/07/20 09:50:58;;;;;;;1.15;0.85;;;28.50;69.80;;;;;;4989065;28;20021;-64
2023/07/20 09:53:26;;;;;;;2.00;1.35;;;29.60;69.20;;;;;;5008849;28;20030;-63
2023/07/20 09:55:53;;;;;;;2.95;1.10;;;29.50;65.50;;;;;;5001893;28;20021;-63
2023/07/20 09:58:19;;;;;;;1.67;1.08;;;29.00;68.10;;;;;;5001022;28;20048;-63
2023/07/20 10:00:50;;;;;;;1.15;1.02;;;27.70;68.50;;;;;;5003866;28;20113;-63
2023/07/20 10:03:20;;;;;;;2.45;1.00;;;27.20;70.90;;;;;;4991282;28;20050;-63
2023/07/20 10:06:00;;;;;;;2.33;0.93;;;27.40;71.30;;;;;;5006198;28;20491;-64
2023/07/20 10:08:28;;;;;;;2.50;0.80;;;28.00;71.90;;;;;;5005549;28;20040;-64
2023/07/20 10:10:53;;;;;;;1.42;1.02;;;27.40;70.20;;;;;;5002880;28;20026;-63
2023/07/20 10:13:27;;;;;;;5.80;1.60;;;27.50;71.40;;;;;;5005443;28;20033;-60
2023/07/20 10:16:04;;;;;;;3.45;0.90;;;27.90;72.50;;;;;;4987412;28;20031;-62
2023/07/20 10:18:51;;;;;;;7.07;1.02;;;28.50;69.50;;;;;;4996463;28;20022;-65
2023/07/20 10:21:19;;;;;;;3.03;1.23;;;27.80;69.70;;;;;;5007043;28;20060;-61
2023/07/20 10:23:45;;;;;;;5.20;1.10;;;27.20;72.50;;;;;;5009569;28;20087;-63
2023/07/20 10:26:12;;;;;;;1.80;0.82;;;26.90;72.00;;;;;;5006391;28;20131;-63
2023/07/20 10:28:39;;;;;;;2.58;1.00;;;26.40;72.60;;;;;;5005863;28;20029;-63
2023/07/20 10:31:08;;;;;;;1.63;0.90;;;25.90;75.00;;;;;;5003358;28;20579;-63
2023/07/20 10:33:34;;;;;;;3.78;1.10;;;25.90;74.70;;;;;;4987503;28;20578;-62
2023/07/20 10:36:07;;;;;;;1.48;0.90;;;25.40;75.40;;;;;;4998099;28;20029;-64
2023/07/20 10:38:52;;;;;;;3.15;1.40;;;25.30;75.30;;;;;;4998599;28;20030;-62
2023/07/20 10:41:40;;;;;;;1.55;0.98;;;25.10;77.30;;;;;;4997895;28;20030;-58
2023/07/20 10:44:09;;;;;;;2.22;1.30;;;24.60;77.30;;;;;;5005836;28;20033;-63
2023/07/20 10:46:37;;;;;;;2.67;1.00;;;24.50;79.30;;;;;;5006280;28;20117;-63
2023/07/20 10:49:07;;;;;;;1.67;1.13;;;24.20;78.90;;;;;;5006349;28;20026;-63
2023/07/20 10:51:41;;;;;;;3.70;1.00;;;24.10;79.50;;;;;;5007852;28;20439;-63
2023/07/20 10:54:33;;;;;;;4.88;1.40;;;24.50;80.10;;;;;;5003398;28;21249;-63
2023/07/20 10:57:23;;;;;;;5.10;1.73;;;25.00;77.90;;;;;;5003328;28;20037;-64
2023/07/20 10:59:48;;;;;;;3.03;1.15;;;25.10;76.80;;;;;;5004816;28;20022;-62
2023/07/20 11:02:19;;;;;;;1.15;0.93;;;25.10;77.20;;;;;;4992489;28;20129;-63
2023/07/20 11:04:46;;;;;;;3.67;0.80;;;25.20;75.80;;;;;;5002604;28;20120;-63
2023/07/20 11:07:16;;;;;;;1.30;0.70;;;25.40;73.20;;;;;;5024454;23;20141;-66
2023/07/20 11:09:42;;;;;;;2.58;1.05;;;25.70;73.60;;;;;;4987572;28;20024;-65
2023/07/20 11:12:11;;;;;;;1.55;1.02;;;25.90;72.60;;;;;;4988150;28;20030;-67
2023/07/20 11:14:53;;;;;;;3.65;1.00;;;26.60;72.50;;;;;;5008944;28;20040;-65
2023/07/20 11:17:22;;;;;;;1.52;1.05;;;26.60;71.70;;;;;;4989593;28;20029;-65
2023/07/20 11:19:48;;;;;;;1.55;0.77;;;26.40;71.50;;;;;;5007617;28;20430;-66
2023/07/20 11:22:17;;;;;;;2.42;0.63;;;26.50;73.10;;;;;;5002458;28;20099;-65
2023/07/20 11:24:42;;;;;;;3.83;1.10;;;25.90;72.20;;;;;;5003634;28;20423;-66
2023/07/20 11:27:08;;;;;;;2.60;1.10;;;25.50;72.50;;;;;;4984278;28;20037;-66
2023/07/20 11:29:35;;;;;;;3.10;0.98;;;25.40;72.80;;;;;;5003534;28;20037;-66
2023/07/20 11:32:02;;;;;;;1.73;0.85;;;25.00;74.10;;;;;;5002523;28;20037;-66
2023/07/20 11:34:30;;;;;;;2.40;1.00;;;24.80;74.50;;;;;;5004857;28;20017;-65
2023/07/20 11:36:56;;;;;;;2.35;1.00;;;25.00;72.90;;;;;;5006086;28;20022;-66
2023/07/20 11:39:24;;;;;;;1.88;1.00;;;25.20;73.10;;;;;;5002335;28;20014;-66
2023/07/20 11:41:52;;;;;;;2.63;0.93;;;25.30;72.80;;;;;;5006201;28;20032;-65
2023/07/20 11:44:27;;;;;;;1.52;0.90;;;25.30;72.50;;;;;;5007729;28;20076;-66
2023/07/20 11:47:08;;;;;;;4.97;0.90;;;25.40;72.30;;;;;;5001063;28;20023;-66
2023/07/20 11:49:38;;;;;;;1.88;1.00;;;25.10;71.20;;;;;;4989050;28;20041;-66
2023/07/20 11:52:06;;;;;;;0.98;0.70;;;24.80;71.80;;;;;;4996348;28;20133;-67
2023/07/20 11:54:33;;;;;;;1.38;1.02;;;24.70;74.20;;;;;;4996064;28;20037;-66
2023/07/20 11:57:05;;;;;;;0.85;0.65;;;24.70;74.00;;;;;;4997843;28;20426;-66
2023/07/20 11:59:31;;;;;;;8.60;1.15;;;24.70;74.40;;;;;;5000889;28;20589;-66
2023/07/20 12:01:58;;;;;;;1.92;0.77;;;24.10;75.50;;;;;;4992578;28;20566;-67
2023/07/20 12:04:24;;;;;;;1.33;0.85;;;24.10;75.00;;;;;;4995748;28;20033;-66
2023/07/20 12:06:49;;;;;;;2.83;1.13;;;24.20;77.10;;;;;;5002827;28;21084;-66
2023/07/20 12:09:17;;;;;;;3.50;1.50;;;24.10;76.30;;;;;;5005253;28;20403;-65
2023/07/20 12:11:47;;;;;;;3.85;1.52;;;24.10;77.30;;;;;;4988581;28;20392;-66
2023/07/20 12:14:13;;;;;;;1.80;1.02;;;24.10;76.80;;;;;;5003236;28;20125;-66
2023/07/20 12:16:38;;;;;;;1.35;0.95;;;24.10;76.70;;;;;;4989729;28;20133;-66
2023/07/20 12:19:10;;;;;;;2.30;1.05;;;24.20;76.30;;;;;;5000759;28;20657;-66
2023/07/20 12:21:37;;;;;;;1.23;0.95;;;24.20;76.40;;;;;;4995205;28;20432;-66
2023/07/20 12:24:03;;;;;;;3.95;1.08;;;24.60;76.20;;;;;;5000519;28;20046;-65
2023/07/20 12:26:29;;;;;;;1.98;0.60;;;24.80;73.80;;;;;;5002719;28;20478;-66
2023/07/20 12:28:55;;;;;;;2.33;0.90;;;24.90;75.00;;;;;;5002509;28;20038;-66
2023/07/20 12:31:23;;;;;;;2.22;1.02;;;25.10;73.90;;;;;;4986173;28;20087;-66
2023/07/20 12:33:49;;;;;;;2.53;0.80;;;25.10;74.10;;;;;;4998103;28;20430;-66
2023/07/20 12:36:15;;;;;;;3.47;0.98;;;25.00;74.90;;;;;;5001346;28;20030;-66
2023/07/20 12:38:41;;;;;;;2.05;0.90;;;25.20;72.50;;;;;;5004175;28;20491;-67
2023/07/20 12:41:07;;;;;;;7.45;0.70;;;25.10;72.00;;;;;;5002539;28;20022;-66
2023/07/20 12:43:33;;;;;;;1.95;0.80;;;25.50;72.90;;;;;;5002201;28;20101;-66
2023/07/20 12:45:59;;;;;;;1.33;1.00;;;25.50;72.40;;;;;;5002281;28;20154;-66